CYBV

Berens River Airport

Berens River, Manitoba, Canada

CYBV 191500Z 11011KT 15SM SCT035 BKN220 10/07 A2983 RMK SC4CS2 SLP112

Observed Flight Rules
Sep-19 @ 15:00 UTC (29 minutes ago)
 
Visual Flight Rules
Wind Visibility Clouds
110° at 11 knots 15 miles
  • Scattered at 3,500' AGL
  • Broken at 22,000' AGL
Temperatures Readings
Current 10°C / 50°F
Dewpoint 7°C / 45°F
Humidity 82%
Altimeter 29.83" Hg
Pressure 1011.2 hPa
Elevation 222
Observed Flight Rules
Sep-19 @ 15:00 UTC
(29 minutes ago)
 
VFR
Wind Visibility
110° at 11 knots 15 miles
Clouds
  • Scattered at 3,500' AGL
  • Broken at 22,000' AGL
Temperature Dewpoint
10°C / 50°F 7°C / 45°F
Humidity Altimeter Pressure
82% 29.83" Hg 1011.2 hPa